sensor_id;sensor_type;location;lat;lon;timestamp;temperature;humidity
27647;DHT22;42229;51.230;6.240;2022-08-27T00:01:33;20.70;99.90
27647;DHT22;42229;51.230;6.240;2022-08-27T00:03:59;20.70;99.90
27647;DHT22;42229;51.230;6.240;2022-08-27T00:06:25;20.70;99.90
27647;DHT22;42229;51.230;6.240;2022-08-27T00:08:52;20.70;99.90
27647;DHT22;42229;51.230;6.240;2022-08-27T00:11:19;20.60;99.90
27647;DHT22;42229;51.230;6.240;2022-08-27T00:13:46;20.60;99.90
27647;DHT22;42229;51.230;6.240;2022-08-27T00:16:13;20.60;99.90
27647;DHT22;42229;51.230;6.240;2022-08-27T00:18:41;20.60;99.90
27647;DHT22;42229;51.230;6.240;2022-08-27T00:21:09;20.60;99.90
27647;DHT22;42229;51.230;6.240;2022-08-27T00:23:35;20.50;99.90
27647;DHT22;42229;51.230;6.240;2022-08-27T00:26:03;20.50;99.90
27647;DHT22;42229;51.230;6.240;2022-08-27T00:28:30;20.50;99.90
27647;DHT22;42229;51.230;6.240;2022-08-27T00:30:57;20.50;99.90
27647;DHT22;42229;51.230;6.240;2022-08-27T00:33:24;20.40;99.90
27647;DHT22;42229;51.230;6.240;2022-08-27T00:35:51;20.40;99.90
27647;DHT22;42229;51.230;6.240;2022-08-27T00:38:18;20.40;99.90
27647;DHT22;42229;51.230;6.240;2022-08-27T00:40:46;20.40;99.90
27647;DHT22;42229;51.230;6.240;2022-08-27T00:43:12;20.30;99.90
27647;DHT22;42229;51.230;6.240;2022-08-27T00:45:45;20.40;99.90
27647;DHT22;42229;51.230;6.240;2022-08-27T00:48:12;20.40;99.90
27647;DHT22;42229;51.230;6.240;2022-08-27T00:50:45;20.30;99.90
27647;DHT22;42229;51.230;6.240;2022-08-27T00:53:15;20.30;99.90
27647;DHT22;42229;51.230;6.240;2022-08-27T00:56:07;20.30;99.90
27647;DHT22;42229;51.230;6.240;2022-08-27T00:58:50;20.30;99.90
27647;DHT22;42229;51.230;6.240;2022-08-27T01:01:23;20.30;99.90
27647;DHT22;42229;51.230;6.240;2022-08-27T01:03:53;20.30;99.90
27647;DHT22;42229;51.230;6.240;2022-08-27T01:06:21;20.30;99.90
27647;DHT22;42229;51.230;6.240;2022-08-27T01:08:53;20.20;99.90
27647;DHT22;42229;51.230;6.240;2022-08-27T01:11:22;20.20;99.90
27647;DHT22;42229;51.230;6.240;2022-08-27T01:13:49;20.20;99.90
27647;DHT22;42229;51.230;6.240;2022-08-27T01:16:17;20.20;99.90
27647;DHT22;42229;51.230;6.240;2022-08-27T01:18:47;20.20;99.90
27647;DHT22;42229;51.230;6.240;2022-08-27T01:21:27;20.20;99.90
27647;DHT22;42229;51.230;6.240;2022-08-27T01:24:08;20.20;99.90
27647;DHT22;42229;51.230;6.240;2022-08-27T01:26:57;20.20;99.90
27647;DHT22;42229;51.230;6.240;2022-08-27T01:29:24;20.10;99.90
27647;DHT22;42229;51.230;6.240;2022-08-27T01:31:51;20.10;99.90
27647;DHT22;42229;51.230;6.240;2022-08-27T01:34:17;20.10;99.90
27647;DHT22;42229;51.230;6.240;2022-08-27T01:36:44;20.10;99.90
27647;DHT22;42229;51.230;6.240;2022-08-27T01:39:10;20.10;99.90
27647;DHT22;42229;51.230;6.240;2022-08-27T01:41:36;20.10;99.90
27647;DHT22;42229;51.230;6.240;2022-08-27T01:44:02;20.10;99.90
27647;DHT22;42229;51.230;6.240;2022-08-27T01:46:29;20.00;99.90
27647;DHT22;42229;51.230;6.240;2022-08-27T01:48:55;20.00;99.90
27647;DHT22;42229;51.230;6.240;2022-08-27T01:51:22;20.10;99.90
27647;DHT22;42229;51.230;6.240;2022-08-27T01:53:48;20.00;99.90
27647;DHT22;42229;51.230;6.240;2022-08-27T01:56:14;20.00;99.90
27647;DHT22;42229;51.230;6.240;2022-08-27T01:58:41;20.10;99.90
27647;DHT22;42229;51.230;6.240;2022-08-27T02:01:09;20.10;99.90
27647;DHT22;42229;51.230;6.240;2022-08-27T02:03:37;20.10;99.90
27647;DHT22;42229;51.230;6.240;2022-08-27T02:06:06;20.00;99.90
27647;DHT22;42229;51.230;6.240;2022-08-27T02:08:34;20.00;99.90
27647;DHT22;42229;51.230;6.240;2022-08-27T02:11:01;20.00;99.90
27647;DHT22;42229;51.230;6.240;2022-08-27T02:13:27;20.00;99.90
27647;DHT22;42229;51.230;6.240;2022-08-27T02:15:53;20.00;99.90
27647;DHT22;42229;51.230;6.240;2022-08-27T02:18:20;20.00;99.90
27647;DHT22;42229;51.230;6.240;2022-08-27T02:20:46;19.90;99.90
27647;DHT22;42229;51.230;6.240;2022-08-27T02:23:13;20.00;99.90
27647;DHT22;42229;51.230;6.240;2022-08-27T02:25:40;19.90;99.90
27647;DHT22;42229;51.230;6.240;2022-08-27T02:28:07;19.90;99.90
27647;DHT22;42229;51.230;6.240;2022-08-27T02:30:34;19.90;99.90
27647;DHT22;42229;51.230;6.240;2022-08-27T02:33:01;19.90;99.90
27647;DHT22;42229;51.230;6.240;2022-08-27T02:35:29;19.90;99.90
27647;DHT22;42229;51.230;6.240;2022-08-27T02:37:57;19.90;99.90
27647;DHT22;42229;51.230;6.240;2022-08-27T02:40:24;19.90;99.90
27647;DHT22;42229;51.230;6.240;2022-08-27T02:42:50;19.90;99.90
27647;DHT22;42229;51.230;6.240;2022-08-27T02:45:17;19.90;99.90
27647;DHT22;42229;51.230;6.240;2022-08-27T02:47:45;19.90;99.90
27647;DHT22;42229;51.230;6.240;2022-08-27T02:50:12;19.90;99.90
27647;DHT22;42229;51.230;6.240;2022-08-27T02:52:39;19.80;99.90
27647;DHT22;42229;51.230;6.240;2022-08-27T02:55:05;19.80;99.90
27647;DHT22;42229;51.230;6.240;2022-08-27T02:57:32;19.90;99.90
27647;DHT22;42229;51.230;6.240;2022-08-27T02:59:59;19.80;99.90
27647;DHT22;42229;51.230;6.240;2022-08-27T03:02:26;19.80;99.90
27647;DHT22;42229;51.230;6.240;2022-08-27T03:04:52;19.80;99.90
27647;DHT22;42229;51.230;6.240;2022-08-27T03:07:18;19.80;99.90
27647;DHT22;42229;51.230;6.240;2022-08-27T03:09:48;19.80;99.90
27647;DHT22;42229;51.230;6.240;2022-08-27T03:12:14;19.90;99.90
27647;DHT22;42229;51.230;6.240;2022-08-27T03:14:40;19.90;99.90
27647;DHT22;42229;51.230;6.240;2022-08-27T03:17:07;19.80;99.90
27647;DHT22;42229;51.230;6.240;2022-08-27T03:19:52;19.80;99.90
27647;DHT22;42229;51.230;6.240;2022-08-27T03:22:18;19.80;99.90
27647;DHT22;42229;51.230;6.240;2022-08-27T03:24:45;19.80;99.90
27647;DHT22;42229;51.230;6.240;2022-08-27T03:27:11;19.80;99.90
27647;DHT22;42229;51.230;6.240;2022-08-27T03:29:37;19.80;99.90
27647;DHT22;42229;51.230;6.240;2022-08-27T03:32:04;19.80;99.90
27647;DHT22;42229;51.230;6.240;2022-08-27T03:34:31;19.80;99.90
27647;DHT22;42229;51.230;6.240;2022-08-27T03:36:58;19.80;99.90
27647;DHT22;42229;51.230;6.240;2022-08-27T03:39:25;19.80;99.90
27647;DHT22;42229;51.230;6.240;2022-08-27T03:41:51;19.80;99.90
27647;DHT22;42229;51.230;6.240;2022-08-27T03:44:17;19.80;99.90
27647;DHT22;42229;51.230;6.240;2022-08-27T03:46:43;19.70;99.90
27647;DHT22;42229;51.230;6.240;2022-08-27T03:49:10;19.70;99.90
27647;DHT22;42229;51.230;6.240;2022-08-27T03:51:36;19.70;99.90
27647;DHT22;42229;51.230;6.240;2022-08-27T03:54:02;19.70;99.90
27647;DHT22;42229;51.230;6.240;2022-08-27T03:56:28;19.70;99.90
27647;DHT22;42229;51.230;6.240;2022-08-27T03:58:55;19.70;99.90
27647;DHT22;42229;51.230;6.240;2022-08-27T04:01:21;19.70;99.90
27647;DHT22;42229;51.230;6.240;2022-08-27T04:03:47;19.70;99.90
27647;DHT22;42229;51.230;6.240;2022-08-27T04:06:13;19.70;99.90
27647;DHT22;42229;51.230;6.240;2022-08-27T04:08:39;19.70;99.90
27647;DHT22;42229;51.230;6.240;2022-08-27T04:11:06;19.70;99.90
27647;DHT22;42229;51.230;6.240;2022-08-27T04:13:32;19.70;99.90
27647;DHT22;42229;51.230;6.240;2022-08-27T04:15:58;19.80;99.90
27647;DHT22;42229;51.230;6.240;2022-08-27T04:18:24;19.80;99.90
27647;DHT22;42229;51.230;6.240;2022-08-27T04:20:51;19.70;99.90
27647;DHT22;42229;51.230;6.240;2022-08-27T04:23:17;19.70;99.90
27647;DHT22;42229;51.230;6.240;2022-08-27T04:25:44;19.70;99.90
27647;DHT22;42229;51.230;6.240;2022-08-27T04:28:11;19.70;99.90
27647;DHT22;42229;51.230;6.240;2022-08-27T04:30:41;19.70;99.90
27647;DHT22;42229;51.230;6.240;2022-08-27T04:33:09;19.70;99.90
27647;DHT22;42229;51.230;6.240;2022-08-27T04:35:36;19.80;99.90
27647;DHT22;42229;51.230;6.240;2022-08-27T04:38:03;19.80;99.90
27647;DHT22;42229;51.230;6.240;2022-08-27T04:40:30;19.70;99.90
27647;DHT22;42229;51.230;6.240;2022-08-27T04:43:15;19.80;99.90
27647;DHT22;42229;51.230;6.240;2022-08-27T04:45:42;19.80;99.90
27647;DHT22;42229;51.230;6.240;2022-08-27T04:48:10;19.80;99.90
27647;DHT22;42229;51.230;6.240;2022-08-27T04:50:39;19.80;99.90
27647;DHT22;42229;51.230;6.240;2022-08-27T04:53:06;19.80;99.90
27647;DHT22;42229;51.230;6.240;2022-08-27T04:55:33;19.80;99.90
27647;DHT22;42229;51.230;6.240;2022-08-27T04:57:59;19.80;99.90
27647;DHT22;42229;51.230;6.240;2022-08-27T05:00:25;19.80;99.90
27647;DHT22;42229;51.230;6.240;2022-08-27T05:02:52;19.80;99.90
27647;DHT22;42229;51.230;6.240;2022-08-27T05:05:18;19.80;99.90
27647;DHT22;42229;51.230;6.240;2022-08-27T05:07:44;19.80;99.90
27647;DHT22;42229;51.230;6.240;2022-08-27T05:10:10;19.80;99.90
27647;DHT22;42229;51.230;6.240;2022-08-27T05:12:37;19.80;99.90
27647;DHT22;42229;51.230;6.240;2022-08-27T05:15:03;19.80;99.90
27647;DHT22;42229;51.230;6.240;2022-08-27T05:17:31;19.80;99.90
27647;DHT22;42229;51.230;6.240;2022-08-27T05:19:57;19.80;99.90
27647;DHT22;42229;51.230;6.240;2022-08-27T05:22:24;19.80;99.90
27647;DHT22;42229;51.230;6.240;2022-08-27T05:24:50;19.80;99.90
27647;DHT22;42229;51.230;6.240;2022-08-27T05:27:16;19.80;99.90
27647;DHT22;42229;51.230;6.240;2022-08-27T05:29:43;19.80;99.90
27647;DHT22;42229;51.230;6.240;2022-08-27T05:32:09;19.80;99.90
27647;DHT22;42229;51.230;6.240;2022-08-27T05:34:35;19.80;99.90
27647;DHT22;42229;51.230;6.240;2022-08-27T05:37:01;19.80;99.90
27647;DHT22;42229;51.230;6.240;2022-08-27T05:39:27;19.80;99.90
27647;DHT22;42229;51.230;6.240;2022-08-27T05:41:57;19.80;99.90
27647;DHT22;42229;51.230;6.240;2022-08-27T05:44:23;19.80;99.90
27647;DHT22;42229;51.230;6.240;2022-08-27T05:46:49;19.80;99.90
27647;DHT22;42229;51.230;6.240;2022-08-27T05:49:16;19.90;99.90
27647;DHT22;42229;51.230;6.240;2022-08-27T05:51:42;19.90;99.90
27647;DHT22;42229;51.230;6.240;2022-08-27T05:54:09;19.90;99.90
27647;DHT22;42229;51.230;6.240;2022-08-27T05:56:41;19.90;99.90
27647;DHT22;42229;51.230;6.240;2022-08-27T05:59:07;19.90;99.90
27647;DHT22;42229;51.230;6.240;2022-08-27T06:01:53;19.90;99.90
27647;DHT22;42229;51.230;6.240;2022-08-27T06:04:21;19.90;99.90
27647;DHT22;42229;51.230;6.240;2022-08-27T06:06:48;20.00;99.90
27647;DHT22;42229;51.230;6.240;2022-08-27T06:09:21;20.00;99.90
27647;DHT22;42229;51.230;6.240;2022-08-27T06:11:52;20.00;99.90
27647;DHT22;42229;51.230;6.240;2022-08-27T06:14:19;20.00;99.90
27647;DHT22;42229;51.230;6.240;2022-08-27T06:16:45;20.00;99.90
27647;DHT22;42229;51.230;6.240;2022-08-27T06:19:11;20.10;99.90
27647;DHT22;42229;51.230;6.240;2022-08-27T06:21:38;20.00;99.90
27647;DHT22;42229;51.230;6.240;2022-08-27T06:24:05;20.00;99.90
27647;DHT22;42229;51.230;6.240;2022-08-27T06:26:33;20.00;99.90
27647;DHT22;42229;51.230;6.240;2022-08-27T06:29:03;20.10;99.90
27647;DHT22;42229;51.230;6.240;2022-08-27T06:31:31;20.10;99.90
27647;DHT22;42229;51.230;6.240;2022-08-27T06:33:58;20.10;99.90
27647;DHT22;42229;51.230;6.240;2022-08-27T06:36:26;20.10;99.90
27647;DHT22;42229;51.230;6.240;2022-08-27T06:38:53;20.10;99.90
27647;DHT22;42229;51.230;6.240;2022-08-27T06:41:20;20.10;99.90
27647;DHT22;42229;51.230;6.240;2022-08-27T06:43:49;20.10;99.90
27647;DHT22;42229;51.230;6.240;2022-08-27T06:46:16;20.20;99.90
27647;DHT22;42229;51.230;6.240;2022-08-27T06:48:43;20.20;99.90
27647;DHT22;42229;51.230;6.240;2022-08-27T06:51:12;20.10;99.90
27647;DHT22;42229;51.230;6.240;2022-08-27T06:53:44;20.20;99.90
27647;DHT22;42229;51.230;6.240;2022-08-27T06:56:12;20.20;99.90
27647;DHT22;42229;51.230;6.240;2022-08-27T06:58:39;20.20;99.90
27647;DHT22;42229;51.230;6.240;2022-08-27T07:01:10;20.30;99.90
27647;DHT22;42229;51.230;6.240;2022-08-27T07:03:41;20.30;99.90
27647;DHT22;42229;51.230;6.240;2022-08-27T07:06:09;20.30;99.90
27647;DHT22;42229;51.230;6.240;2022-08-27T07:08:36;20.30;99.90
27647;DHT22;42229;51.230;6.240;2022-08-27T07:11:04;20.30;99.90
27647;DHT22;42229;51.230;6.240;2022-08-27T07:13:31;20.40;99.90
27647;DHT22;42229;51.230;6.240;2022-08-27T07:15:58;20.40;99.90
27647;DHT22;42229;51.230;6.240;2022-08-27T07:18:24;20.40;99.90
27647;DHT22;42229;51.230;6.240;2022-08-27T07:20:51;20.40;99.90
27647;DHT22;42229;51.230;6.240;2022-08-27T07:23:17;20.40;99.90
27647;DHT22;42229;51.230;6.240;2022-08-27T07:25:43;20.50;99.90
27647;DHT22;42229;51.230;6.240;2022-08-27T07:28:10;20.50;99.90
27647;DHT22;42229;51.230;6.240;2022-08-27T07:30:36;20.50;99.90
27647;DHT22;42229;51.230;6.240;2022-08-27T07:33:03;20.50;99.90
27647;DHT22;42229;51.230;6.240;2022-08-27T07:35:29;20.50;99.90
27647;DHT22;42229;51.230;6.240;2022-08-27T07:37:56;20.50;99.90
27647;DHT22;42229;51.230;6.240;2022-08-27T07:40:23;20.60;99.90
27647;DHT22;42229;51.230;6.240;2022-08-27T07:42:49;20.60;99.90
27647;DHT22;42229;51.230;6.240;2022-08-27T07:45:39;20.60;99.90
27647;DHT22;42229;51.230;6.240;2022-08-27T07:48:09;20.70;99.90
27647;DHT22;42229;51.230;6.240;2022-08-27T07:50:36;20.70;99.90
27647;DHT22;42229;51.230;6.240;2022-08-27T07:53:02;20.60;99.90
27647;DHT22;42229;51.230;6.240;2022-08-27T07:55:29;20.60;99.80
27647;DHT22;42229;51.230;6.240;2022-08-27T07:57:55;20.60;99.80
27647;DHT22;42229;51.230;6.240;2022-08-27T08:00:21;20.60;99.80
27647;DHT22;42229;51.230;6.240;2022-08-27T08:02:47;20.60;99.90
27647;DHT22;42229;51.230;6.240;2022-08-27T08:05:14;20.60;99.90
27647;DHT22;42229;51.230;6.240;2022-08-27T08:07:41;20.60;99.90
27647;DHT22;42229;51.230;6.240;2022-08-27T08:10:08;20.60;99.30
27647;DHT22;42229;51.230;6.240;2022-08-27T08:12:36;20.50;99.90
27647;DHT22;42229;51.230;6.240;2022-08-27T08:15:04;20.60;99.90
27647;DHT22;42229;51.230;6.240;2022-08-27T08:17:33;20.60;99.90
27647;DHT22;42229;51.230;6.240;2022-08-27T08:19:59;20.60;99.90
27647;DHT22;42229;51.230;6.240;2022-08-27T08:22:26;20.70;99.40
27647;DHT22;42229;51.230;6.240;2022-08-27T08:24:52;20.70;99.90
27647;DHT22;42229;51.230;6.240;2022-08-27T08:27:19;20.80;99.80
27647;DHT22;42229;51.230;6.240;2022-08-27T08:29:46;20.80;99.40
27647;DHT22;42229;51.230;6.240;2022-08-27T08:32:13;20.90;99.90
27647;DHT22;42229;51.230;6.240;2022-08-27T08:34:40;20.90;99.50
27647;DHT22;42229;51.230;6.240;2022-08-27T08:37:06;20.90;99.50
27647;DHT22;42229;51.230;6.240;2022-08-27T08:39:34;21.00;99.40
27647;DHT22;42229;51.230;6.240;2022-08-27T08:42:02;21.10;99.80
27647;DHT22;42229;51.230;6.240;2022-08-27T08:44:39;21.10;99.80
27647;DHT22;42229;51.230;6.240;2022-08-27T08:47:27;21.10;98.50
27647;DHT22;42229;51.230;6.240;2022-08-27T08:50:02;21.20;99.30
27647;DHT22;42229;51.230;6.240;2022-08-27T08:55:03;21.40;99.30
27647;DHT22;42229;51.230;6.240;2022-08-27T08:57:35;21.50;99.20
27647;DHT22;42229;51.230;6.240;2022-08-27T09:00:29;21.50;99.40
27647;DHT22;42229;51.230;6.240;2022-08-27T09:02:56;21.60;98.60
27647;DHT22;42229;51.230;6.240;2022-08-27T09:05:22;21.70;98.10
27647;DHT22;42229;51.230;6.240;2022-08-27T09:10:42;21.80;96.70
27647;DHT22;42229;51.230;6.240;2022-08-27T09:13:34;21.80;97.10
27647;DHT22;42229;51.230;6.240;2022-08-27T09:16:04;21.80;97.30
27647;DHT22;42229;51.230;6.240;2022-08-27T09:18:32;21.80;96.70
27647;DHT22;42229;51.230;6.240;2022-08-27T09:23:54;21.70;97.20
27647;DHT22;42229;51.230;6.240;2022-08-27T09:26:33;21.80;97.80
27647;DHT22;42229;51.230;6.240;2022-08-27T09:29:04;21.80;97.10
27647;DHT22;42229;51.230;6.240;2022-08-27T09:31:42;21.80;97.50
27647;DHT22;42229;51.230;6.240;2022-08-27T09:34:11;22.00;98.50
27647;DHT22;42229;51.230;6.240;2022-08-27T09:36:48;22.00;97.60
27647;DHT22;42229;51.230;6.240;2022-08-27T09:39:18;22.10;96.00
27647;DHT22;42229;51.230;6.240;2022-08-27T09:41:45;22.20;96.50
27647;DHT22;42229;51.230;6.240;2022-08-27T09:44:15;22.30;96.80
27647;DHT22;42229;51.230;6.240;2022-08-27T09:46:53;22.40;96.80
27647;DHT22;42229;51.230;6.240;2022-08-27T09:49:24;22.40;95.50
27647;DHT22;42229;51.230;6.240;2022-08-27T09:51:51;22.40;95.40
27647;DHT22;42229;51.230;6.240;2022-08-27T09:55:01;22.40;96.10
27647;DHT22;42229;51.230;6.240;2022-08-27T09:57:10;22.50;96.60
27647;DHT22;42229;51.230;6.240;2022-08-27T09:59:50;22.60;95.90
27647;DHT22;42229;51.230;6.240;2022-08-27T10:02:19;22.60;95.30
27647;DHT22;42229;51.230;6.240;2022-08-27T10:04:48;22.60;96.10
27647;DHT22;42229;51.230;6.240;2022-08-27T10:30:09;23.50;94.50
27647;DHT22;42229;51.230;6.240;2022-08-27T10:35:33;23.50;94.70
27647;DHT22;42229;51.230;6.240;2022-08-27T10:38:21;23.50;93.60
27647;DHT22;42229;51.230;6.240;2022-08-27T10:40:58;23.60;92.50
27647;DHT22;42229;51.230;6.240;2022-08-27T10:49:18;23.90;93.80
27647;DHT22;42229;51.230;6.240;2022-08-27T10:55:00;24.10;92.90
27647;DHT22;42229;51.230;6.240;2022-08-27T11:03:09;24.40;93.00
27647;DHT22;42229;51.230;6.240;2022-08-27T11:05:42;24.50;92.40
27647;DHT22;42229;51.230;6.240;2022-08-27T11:08:13;24.50;90.70
27647;DHT22;42229;51.230;6.240;2022-08-27T11:10:45;24.40;91.00
27647;DHT22;42229;51.230;6.240;2022-08-27T11:13:18;24.50;91.60
27647;DHT22;42229;51.230;6.240;2022-08-27T11:16:14;24.50;93.10
27647;DHT22;42229;51.230;6.240;2022-08-27T11:18:44;24.50;89.60
27647;DHT22;42229;51.230;6.240;2022-08-27T11:21:31;24.50;90.50
27647;DHT22;42229;51.230;6.240;2022-08-27T11:26:38;24.50;90.00
27647;DHT22;42229;51.230;6.240;2022-08-27T11:29:14;24.50;92.00
27647;DHT22;42229;51.230;6.240;2022-08-27T11:31:50;24.50;90.60
27647;DHT22;42229;51.230;6.240;2022-08-27T11:37:13;24.50;91.50
27647;DHT22;42229;51.230;6.240;2022-08-27T11:40:23;24.50;92.20
27647;DHT22;42229;51.230;6.240;2022-08-27T11:42:43;24.60;91.50
27647;DHT22;42229;51.230;6.240;2022-08-27T11:45:32;24.70;90.00
27647;DHT22;42229;51.230;6.240;2022-08-27T11:48:14;24.70;89.00
27647;DHT22;42229;51.230;6.240;2022-08-27T11:50:41;24.80;88.00
27647;DHT22;42229;51.230;6.240;2022-08-27T11:53:23;24.70;87.20
27647;DHT22;42229;51.230;6.240;2022-08-27T11:55:53;24.80;90.50
27647;DHT22;42229;51.230;6.240;2022-08-27T12:00:46;24.70;89.30
27647;DHT22;42229;51.230;6.240;2022-08-27T12:03:24;24.80;90.60
27647;DHT22;42229;51.230;6.240;2022-08-27T12:37:41;25.30;84.00
27647;DHT22;42229;51.230;6.240;2022-08-27T12:40:18;25.30;85.70
27647;DHT22;42229;51.230;6.240;2022-08-27T12:42:48;25.20;85.10
27647;DHT22;42229;51.230;6.240;2022-08-27T12:45:22;25.10;86.80
27647;DHT22;42229;51.230;6.240;2022-08-27T12:47:51;25.10;88.70
27647;DHT22;42229;51.230;6.240;2022-08-27T12:50:23;25.20;89.80
27647;DHT22;42229;51.230;6.240;2022-08-27T12:55:47;25.30;89.50
27647;DHT22;42229;51.230;6.240;2022-08-27T12:58:22;25.40;90.30
27647;DHT22;42229;51.230;6.240;2022-08-27T13:03:51;25.60;90.10
27647;DHT22;42229;51.230;6.240;2022-08-27T13:06:20;25.70;88.40
27647;DHT22;42229;51.230;6.240;2022-08-27T13:08:59;25.80;89.80
27647;DHT22;42229;51.230;6.240;2022-08-27T13:11:27;25.80;87.40
27647;DHT22;42229;51.230;6.240;2022-08-27T13:14:06;25.90;89.40
27647;DHT22;42229;51.230;6.240;2022-08-27T13:16:38;25.90;89.10
27647;DHT22;42229;51.230;6.240;2022-08-27T13:19:13;25.90;87.60
27647;DHT22;42229;51.230;6.240;2022-08-27T13:21:50;25.90;88.00
27647;DHT22;42229;51.230;6.240;2022-08-27T13:24:19;25.80;83.50
27647;DHT22;42229;51.230;6.240;2022-08-27T13:26:52;25.80;82.80
27647;DHT22;42229;51.230;6.240;2022-08-27T13:29:19;25.70;86.90
27647;DHT22;42229;51.230;6.240;2022-08-27T13:31:45;25.70;86.80
27647;DHT22;42229;51.230;6.240;2022-08-27T13:34:23;25.70;85.20
27647;DHT22;42229;51.230;6.240;2022-08-27T13:36:57;25.70;85.70
27647;DHT22;42229;51.230;6.240;2022-08-27T13:39:35;25.70;84.40
27647;DHT22;42229;51.230;6.240;2022-08-27T13:42:03;25.70;86.40
27647;DHT22;42229;51.230;6.240;2022-08-27T13:44:32;25.70;84.70
27647;DHT22;42229;51.230;6.240;2022-08-27T13:47:02;25.70;86.00
27647;DHT22;42229;51.230;6.240;2022-08-27T13:49:31;25.70;86.80
27647;DHT22;42229;51.230;6.240;2022-08-27T13:52:02;25.70;87.60
27647;DHT22;42229;51.230;6.240;2022-08-27T13:54:50;25.70;84.30
27647;DHT22;42229;51.230;6.240;2022-08-27T13:57:30;25.70;87.10
27647;DHT22;42229;51.230;6.240;2022-08-27T14:00:07;25.60;84.50
27647;DHT22;42229;51.230;6.240;2022-08-27T14:02:36;25.60;84.00
27647;DHT22;42229;51.230;6.240;2022-08-27T14:05:05;25.60;85.30
27647;DHT22;42229;51.230;6.240;2022-08-27T14:07:35;25.60;86.30
27647;DHT22;42229;51.230;6.240;2022-08-27T14:10:04;25.60;86.80
27647;DHT22;42229;51.230;6.240;2022-08-27T14:17:57;25.50;83.60
27647;DHT22;42229;51.230;6.240;2022-08-27T14:20:23;25.40;85.00
27647;DHT22;42229;51.230;6.240;2022-08-27T14:22:49;25.40;84.50
27647;DHT22;42229;51.230;6.240;2022-08-27T14:25:16;25.40;86.50
27647;DHT22;42229;51.230;6.240;2022-08-27T14:27:43;25.30;86.10
27647;DHT22;42229;51.230;6.240;2022-08-27T14:30:12;25.30;86.90
27647;DHT22;42229;51.230;6.240;2022-08-27T14:32:40;25.30;84.70
27647;DHT22;42229;51.230;6.240;2022-08-27T14:35:07;25.30;86.00
27647;DHT22;42229;51.230;6.240;2022-08-27T14:37:36;25.30;86.40
27647;DHT22;42229;51.230;6.240;2022-08-27T14:40:04;25.30;87.00
27647;DHT22;42229;51.230;6.240;2022-08-27T14:42:30;25.30;86.20
27647;DHT22;42229;51.230;6.240;2022-08-27T14:44:56;25.30;87.10
27647;DHT22;42229;51.230;6.240;2022-08-27T14:47:23;25.30;86.20
27647;DHT22;42229;51.230;6.240;2022-08-27T14:49:49;25.30;86.40
27647;DHT22;42229;51.230;6.240;2022-08-27T14:52:15;25.30;85.80
27647;DHT22;42229;51.230;6.240;2022-08-27T14:54:42;25.30;84.90
27647;DHT22;42229;51.230;6.240;2022-08-27T14:57:09;25.30;84.00
27647;DHT22;42229;51.230;6.240;2022-08-27T14:59:36;25.20;85.60
27647;DHT22;42229;51.230;6.240;2022-08-27T15:02:04;25.10;83.20
27647;DHT22;42229;51.230;6.240;2022-08-27T15:04:33;25.10;85.70
27647;DHT22;42229;51.230;6.240;2022-08-27T15:06:59;25.10;86.80
27647;DHT22;42229;51.230;6.240;2022-08-27T15:09:25;25.10;84.90
27647;DHT22;42229;51.230;6.240;2022-08-27T15:11:52;25.10;85.30
27647;DHT22;42229;51.230;6.240;2022-08-27T15:14:26;25.00;85.60
27647;DHT22;42229;51.230;6.240;2022-08-27T15:16:54;25.00;85.30
27647;DHT22;42229;51.230;6.240;2022-08-27T15:19:21;25.10;86.20
27647;DHT22;42229;51.230;6.240;2022-08-27T15:21:48;25.00;85.40
27647;DHT22;42229;51.230;6.240;2022-08-27T15:24:17;25.00;86.10
27647;DHT22;42229;51.230;6.240;2022-08-27T15:26:47;25.10;85.60
27647;DHT22;42229;51.230;6.240;2022-08-27T15:29:14;25.10;85.60
27647;DHT22;42229;51.230;6.240;2022-08-27T15:31:40;25.00;86.20
27647;DHT22;42229;51.230;6.240;2022-08-27T15:34:07;25.10;85.20
27647;DHT22;42229;51.230;6.240;2022-08-27T15:36:34;25.10;84.80
27647;DHT22;42229;51.230;6.240;2022-08-27T15:39:01;25.00;85.00
27647;DHT22;42229;51.230;6.240;2022-08-27T15:41:27;25.00;86.80
27647;DHT22;42229;51.230;6.240;2022-08-27T15:43:53;25.00;85.60
27647;DHT22;42229;51.230;6.240;2022-08-27T15:46:20;25.00;85.60
27647;DHT22;42229;51.230;6.240;2022-08-27T15:48:47;24.90;86.00
27647;DHT22;42229;51.230;6.240;2022-08-27T15:51:13;25.00;86.20
27647;DHT22;42229;51.230;6.240;2022-08-27T15:53:40;24.90;84.50
27647;DHT22;42229;51.230;6.240;2022-08-27T15:56:07;24.90;85.10
27647;DHT22;42229;51.230;6.240;2022-08-27T15:58:34;24.90;85.40
27647;DHT22;42229;51.230;6.240;2022-08-27T16:01:03;24.90;86.10
27647;DHT22;42229;51.230;6.240;2022-08-27T16:03:33;24.90;86.20
27647;DHT22;42229;51.230;6.240;2022-08-27T16:05:59;24.80;85.70
27647;DHT22;42229;51.230;6.240;2022-08-27T16:08:27;24.80;86.20
27647;DHT22;42229;51.230;6.240;2022-08-27T16:10:54;24.70;86.00
27647;DHT22;42229;51.230;6.240;2022-08-27T16:13:22;24.70;86.40
27647;DHT22;42229;51.230;6.240;2022-08-27T16:15:49;24.70;85.90
27647;DHT22;42229;51.230;6.240;2022-08-27T16:18:16;24.60;85.80
27647;DHT22;42229;51.230;6.240;2022-08-27T16:20:45;24.60;86.20
27647;DHT22;42229;51.230;6.240;2022-08-27T16:23:12;24.60;86.10
27647;DHT22;42229;51.230;6.240;2022-08-27T16:25:38;24.60;84.70
27647;DHT22;42229;51.230;6.240;2022-08-27T16:28:05;24.50;84.90
27647;DHT22;42229;51.230;6.240;2022-08-27T16:30:31;24.50;85.50
27647;DHT22;42229;51.230;6.240;2022-08-27T16:32:57;24.40;84.40
27647;DHT22;42229;51.230;6.240;2022-08-27T16:35:24;24.40;85.50
27647;DHT22;42229;51.230;6.240;2022-08-27T16:37:50;24.40;85.90
27647;DHT22;42229;51.230;6.240;2022-08-27T16:40:17;24.40;86.20
27647;DHT22;42229;51.230;6.240;2022-08-27T16:42:45;24.40;86.50
27647;DHT22;42229;51.230;6.240;2022-08-27T16:45:13;24.30;86.30
27647;DHT22;42229;51.230;6.240;2022-08-27T16:47:41;24.30;86.10
27647;DHT22;42229;51.230;6.240;2022-08-27T16:50:27;24.30;86.20
27647;DHT22;42229;51.230;6.240;2022-08-27T16:53:04;24.20;86.50
27647;DHT22;42229;51.230;6.240;2022-08-27T16:55:32;24.10;86.90
27647;DHT22;42229;51.230;6.240;2022-08-27T16:57:59;24.10;87.00
27647;DHT22;42229;51.230;6.240;2022-08-27T17:00:26;24.10;86.90
27647;DHT22;42229;51.230;6.240;2022-08-27T17:02:54;24.00;87.10
27647;DHT22;42229;51.230;6.240;2022-08-27T17:05:21;24.00;87.40
27647;DHT22;42229;51.230;6.240;2022-08-27T17:07:48;23.90;87.50
27647;DHT22;42229;51.230;6.240;2022-08-27T17:10:15;23.90;87.50
27647;DHT22;42229;51.230;6.240;2022-08-27T17:12:42;23.80;87.70
27647;DHT22;42229;51.230;6.240;2022-08-27T17:15:11;23.80;87.70
27647;DHT22;42229;51.230;6.240;2022-08-27T17:17:39;23.80;87.70
27647;DHT22;42229;51.230;6.240;2022-08-27T17:20:06;23.70;87.80
27647;DHT22;42229;51.230;6.240;2022-08-27T17:22:33;23.70;88.00